EGXP METAR and TAF | Updated Today

EGXP METAR

RAF Scampton

Observation time: 71 min. ago

EGXP 200650Z AUTO 23009KT 9999 // FEW040/// BKN050/// BKN100/// 13/09 Q1017

Need help? Read our tutorial on how to read METARs or read the parsed version below.

RAF Scampton (EGXP) METAR

  • Weather conditions on Fri, 20 May 2022 06:50:00 +0000 (71 min. ago):
  • Present conditions: Dry
  • Clouds: A few at 1219 meters; broken sky at 1524 meters; broken sky at 3048 meters
  • Visibility: Greater than 10 km
  • Wind: 230 degrees at 9 knots
  • Temperature: 13 celsius
  • Dew point: 9 celsius
  • Pressure: 1017 millibars
  • Remarks: None


Useful to know...

EGXP TAF

RAF Scampton

TAF EGXP 181320Z 1815/1818 19011KT 9999 FEW045
Observation time: 42:41 hr. ago
Need help? Read our tutorial on how to read TAFs or read the parsed version below.

Parsed version of TAF for RAF Scampton (EGXP)

  • From 18 May at 15:00 UTC, to day 18 of the month at 18:00 UTC
  • Clouds: A few at 1372 meters
  • Visibility: Greater than 10 km
  • Wind: 190 degrees at 11